Time;durP1;ratioP1;P1;durP2;ratioP2;P2;SDS_P1;SDS_P2;PMS_P1;PMS_P2;Temp;Humidity;BMP_temperature;BMP_pressure;BME280_temperature;BME280_humidity;BME280_pressure;Samples;Min_cycle;Max_cycle;Signal;HPM_P1;HPM_P2
2023/08/01 00:00:48;;;;;;;5.47;2.65;;;19.30;99.90;;;;;;4983638;28;20034;-74
2023/08/01 00:03:14;;;;;;;6.30;2.80;;;19.20;99.90;;;;;;4985963;28;20046;-75
2023/08/01 00:05:44;;;;;;;5.25;2.50;;;19.20;99.90;;;;;;4987163;28;20058;-75
2023/08/01 00:08:13;;;;;;;4.20;2.53;;;19.20;99.90;;;;;;4987694;28;20035;-74
2023/08/01 00:10:41;;;;;;;7.07;2.75;;;19.20;99.90;;;;;;4987023;28;20055;-75
2023/08/01 00:13:08;;;;;;;8.45;2.72;;;19.10;99.90;;;;;;4981815;28;20023;-75
2023/08/01 00:15:34;;;;;;;4.88;2.55;;;19.00;99.90;;;;;;4987211;28;20265;-74
2023/08/01 00:18:00;;;;;;;5.45;2.60;;;19.00;99.90;;;;;;4986834;28;20051;-74
2023/08/01 00:20:25;;;;;;;4.72;2.50;;;19.00;99.90;;;;;;4987032;28;20062;-75
2023/08/01 00:22:51;;;;;;;7.63;3.20;;;19.00;99.90;;;;;;4986931;28;20220;-74
2023/08/01 00:25:18;;;;;;;5.25;2.53;;;18.90;99.90;;;;;;4987055;28;20027;-74
2023/08/01 00:27:43;;;;;;;5.93;2.80;;;18.90;99.90;;;;;;4984053;28;20027;-73
2023/08/01 00:30:09;;;;;;;6.30;2.53;;;18.80;99.90;;;;;;4986788;28;20043;-73
2023/08/01 06:25:49;;;;;;;5.38;2.95;;;20.20;95.60;;;;;;5311897;23;20404;-75
2023/08/01 06:28:15;;;;;;;5.07;2.83;;;20.20;96.10;;;;;;4983190;28;20041;-74
2023/08/01 06:30:47;;;;;;;5.85;2.63;;;20.10;96.50;;;;;;4984574;28;20042;-72
2023/08/01 06:33:12;;;;;;;6.75;3.10;;;19.70;98.50;;;;;;4976618;28;20058;-72
2023/08/01 06:35:38;;;;;;;6.75;3.47;;;18.90;99.90;;;;;;4965115;29;20090;-72
2023/08/01 06:38:04;;;;;;;41.13;7.63;;;17.90;99.90;;;;;;4964708;29;20035;-71
2023/08/01 06:40:29;;;;;;;15.88;4.97;;;17.60;99.90;;;;;;4965132;28;20245;-71
2023/08/01 06:42:55;;;;;;;8.32;3.78;;;17.50;99.90;;;;;;4974709;28;20029;-71
2023/08/01 06:45:21;;;;;;;9.93;4.22;;;17.50;99.90;;;;;;4977089;28;20031;-72
2023/08/01 06:47:46;;;;;;;8.32;4.18;;;17.30;99.90;;;;;;4965027;29;20300;-72
2023/08/01 06:50:12;;;;;;;7.00;3.90;;;17.40;99.90;;;;;;4974074;28;20324;-72
2023/08/01 06:52:38;;;;;;;7.65;4.07;;;17.50;99.90;;;;;;4984298;28;20240;-72
2023/08/01 06:55:04;;;;;;;8.75;4.40;;;17.30;99.90;;;;;;4983911;28;20023;-69
2023/08/01 06:57:30;;;;;;;9.25;4.38;;;16.90;99.90;;;;;;4968740;28;20216;-71
2023/08/01 06:59:56;;;;;;;9.23;4.90;;;17.00;99.90;;;;;;4981903;28;20062;-70
2023/08/01 07:02:25;;;;;;;8.68;5.32;;;16.70;99.90;;;;;;4983750;28;20026;-72
2023/08/01 07:04:51;;;;;;;9.13;5.13;;;16.60;99.90;;;;;;4984202;28;20327;-71
2023/08/01 07:07:16;;;;;;;9.32;4.82;;;16.70;99.90;;;;;;4983541;28;20037;-73
2023/08/01 07:09:42;;;;;;;10.90;5.20;;;16.90;99.90;;;;;;4982949;28;20038;-72
2023/08/01 07:12:08;;;;;;;11.65;5.35;;;16.90;99.90;;;;;;4983426;28;20293;-73
2023/08/01 07:14:33;;;;;;;9.68;5.35;;;17.00;99.90;;;;;;4983965;28;20027;-74
2023/08/01 07:16:59;;;;;;;9.60;5.60;;;17.00;99.90;;;;;;4984050;28;20133;-77
2023/08/01 07:19:25;;;;;;;9.68;5.63;;;17.10;99.90;;;;;;4983777;28;20042;-74
2023/08/01 07:21:50;;;;;;;11.38;5.38;;;17.20;99.90;;;;;;4984056;28;20037;-74
2023/08/01 07:24:16;;;;;;;8.77;5.10;;;17.40;99.90;;;;;;4983137;28;20420;-72
2023/08/01 07:26:42;;;;;;;10.90;5.32;;;17.50;99.90;;;;;;4984412;28;20034;-74
2023/08/01 07:29:10;;;;;;;9.90;5.07;;;17.60;99.90;;;;;;4982783;28;20122;-73
2023/08/01 07:31:36;;;;;;;9.50;4.40;;;17.60;99.90;;;;;;4983844;28;20240;-72
2023/08/01 07:34:02;;;;;;;9.90;5.32;;;17.50;99.90;;;;;;4966521;28;20313;-74
2023/08/01 07:36:28;;;;;;;10.85;4.93;;;17.30;99.90;;;;;;4964080;28;20038;-72
2023/08/01 07:38:56;;;;;;;7.40;4.53;;;17.20;99.90;;;;;;4966193;28;20038;-71
2023/08/01 07:41:21;;;;;;;11.20;4.80;;;17.00;99.90;;;;;;4982988;28;20082;-71
2023/08/01 07:43:48;;;;;;;10.50;5.60;;;16.90;99.90;;;;;;4983594;28;20059;-70
2023/08/01 07:46:14;;;;;;;11.55;5.25;;;16.80;99.90;;;;;;4983309;28;20038;-71
2023/08/01 07:48:40;;;;;;;10.50;5.47;;;16.80;99.90;;;;;;4984471;28;20034;-73
2023/08/01 07:51:07;;;;;;;9.98;4.45;;;16.80;99.90;;;;;;4983035;28;20038;-72
2023/08/01 07:53:34;;;;;;;10.70;4.93;;;16.70;99.90;;;;;;4983527;28;20035;-71
2023/08/01 07:56:02;;;;;;;8.68;4.30;;;16.50;99.90;;;;;;4976569;28;20031;-70
2023/08/01 07:58:28;;;;;;;8.85;4.15;;;16.50;99.90;;;;;;4978761;28;20031;-70
2023/08/01 08:00:54;;;;;;;7.60;3.60;;;16.50;99.90;;;;;;4976189;28;20039;-72
2023/08/01 08:03:22;;;;;;;6.72;3.88;;;16.50;99.90;;;;;;4982461;28;20034;-70
2023/08/01 08:05:48;;;;;;;6.23;3.53;;;16.50;99.90;;;;;;4983265;28;20251;-71
2023/08/01 08:08:14;;;;;;;7.35;3.90;;;16.60;99.90;;;;;;4982740;28;20046;-70
2023/08/01 08:10:40;;;;;;;6.40;3.55;;;16.70;99.90;;;;;;4982950;28;20074;-70
2023/08/01 08:13:06;;;;;;;5.85;3.50;;;16.80;99.90;;;;;;4981337;28;20054;-72
2023/08/01 08:15:34;;;;;;;7.05;3.13;;;16.90;99.90;;;;;;4982991;28;20023;-71
2023/08/01 08:18:04;;;;;;;;;;;16.90;99.90;;;;;;4980095;28;20096;-72
2023/08/01 08:20:31;;;;;;;7.07;2.78;;;16.90;99.90;;;;;;4963907;28;20192;-74
2023/08/01 08:22:57;;;;;;;5.20;2.97;;;16.90;99.90;;;;;;4964259;28;20174;-72
2023/08/01 08:25:26;;;;;;;4.97;3.03;;;16.90;99.90;;;;;;4966417;29;20094;-74
2023/08/01 08:27:51;;;;;;;;;;;16.90;99.90;;;;;;4967902;29;20042;-73
2023/08/01 08:30:17;;;;;;;4.38;2.15;;;17.00;99.90;;;;;;4966860;28;19918;-73
2023/08/01 08:32:43;;;;;;;4.85;2.50;;;17.00;99.90;;;;;;4972593;28;20061;-70
2023/08/01 08:35:09;;;;;;;5.80;2.80;;;17.00;99.90;;;;;;4986442;28;20034;-71
2023/08/01 08:37:36;;;;;;;4.95;2.47;;;17.00;99.90;;;;;;4986605;28;20220;-70
2023/08/01 08:40:02;;;;;;;7.03;2.90;;;17.10;99.90;;;;;;4986661;28;20308;-73
2023/08/01 08:42:27;;;;;;;5.22;2.30;;;17.20;99.90;;;;;;4986097;28;20037;-72
2023/08/01 08:44:55;;;;;;;5.82;2.33;;;17.40;99.90;;;;;;4986065;28;20220;-72
2023/08/01 08:47:25;;;;;;;4.60;2.42;;;17.50;99.90;;;;;;4986024;28;20031;-70
2023/08/01 08:49:52;;;;;;;5.85;2.75;;;17.80;99.90;;;;;;4976603;28;20035;-75
2023/08/01 08:52:18;;;;;;;6.43;2.65;;;17.90;99.90;;;;;;4965610;29;20035;-77
2023/08/01 08:54:45;;;;;;;4.32;2.38;;;18.20;99.90;;;;;;4971861;28;20383;-80
2023/08/01 08:57:11;;;;;;;4.72;2.35;;;18.30;99.90;;;;;;4985645;28;20038;-73
2023/08/01 08:59:38;;;;;;;5.22;2.28;;;18.50;99.90;;;;;;4986294;28;20038;-72
2023/08/01 09:02:04;;;;;;;4.43;2.17;;;18.70;99.90;;;;;;4985898;28;20026;-75
2023/08/01 09:04:31;;;;;;;4.72;2.00;;;18.80;99.90;;;;;;4985593;28;20019;-73
2023/08/01 09:07:02;;;;;;;5.63;2.03;;;18.80;99.90;;;;;;4986244;28;20031;-73
2023/08/01 09:09:27;;;;;;;4.53;2.03;;;18.70;99.90;;;;;;4985281;28;20121;-72
2023/08/01 09:11:56;;;;;;;4.53;2.00;;;18.50;99.90;;;;;;4986231;28;20331;-74
2023/08/01 09:14:22;;;;;;;3.38;2.00;;;18.60;99.90;;;;;;4985207;28;20190;-75
2023/08/01 09:16:48;;;;;;;4.72;1.98;;;18.60;99.90;;;;;;4985840;28;20317;-74
2023/08/01 09:19:32;;;;;;;4.15;1.67;;;18.60;99.90;;;;;;4985309;28;20116;-72
2023/08/01 09:21:58;;;;;;;5.38;1.75;;;18.40;99.90;;;;;;4985653;28;20068;-74
2023/08/01 09:24:24;;;;;;;10.00;1.90;;;18.40;99.90;;;;;;4984654;28;20042;-73
2023/08/01 09:26:50;;;;;;;3.53;1.80;;;18.30;99.90;;;;;;4986071;28;20316;-75
2023/08/01 09:29:20;;;;;;;6.07;1.80;;;18.30;99.90;;;;;;5000556;28;20086;-74
2023/08/01 09:31:46;;;;;;;4.03;1.88;;;18.30;99.90;;;;;;4985298;28;20031;-74
2023/08/01 09:34:23;;;;;;;3.22;1.30;;;18.30;99.90;;;;;;4984701;28;20042;-76
2023/08/01 09:36:49;;;;;;;5.10;1.85;;;18.30;99.90;;;;;;4985420;28;20101;-75
2023/08/01 09:39:20;;;;;;;2.78;1.42;;;18.50;99.90;;;;;;4985087;28;20301;-76
2023/08/01 09:41:59;;;;;;;6.97;1.83;;;18.60;99.90;;;;;;4985681;28;20030;-74
2023/08/01 09:44:27;;;;;;;10.52;2.20;;;18.80;99.90;;;;;;4985334;28;20042;-73
2023/08/01 09:47:03;;;;;;;3.70;1.58;;;19.00;99.90;;;;;;4984783;28;20205;-73
2023/08/01 09:49:30;;;;;;;3.70;1.10;;;19.10;99.90;;;;;;4984500;28;20051;-75
2023/08/01 09:51:57;;;;;;;1.92;1.10;;;19.40;99.90;;;;;;4985353;28;20049;-76
2023/08/01 09:54:23;;;;;;;2.45;0.80;;;19.50;99.90;;;;;;4984508;28;20364;-75
2023/08/01 09:56:51;;;;;;;2.58;1.10;;;19.80;99.90;;;;;;4973003;28;20095;-75
2023/08/01 09:59:26;;;;;;;2.45;0.90;;;20.00;99.90;;;;;;4965899;29;20038;-75
2023/08/01 10:01:54;;;;;;;2.75;0.90;;;20.10;99.90;;;;;;4970822;28;20023;-73
2023/08/01 10:04:30;;;;;;;1.13;0.50;;;20.10;99.90;;;;;;4984677;28;20317;-74
2023/08/01 10:07:06;;;;;;;1.95;0.65;;;20.30;99.90;;;;;;5000394;28;20031;-73
2023/08/01 10:09:35;;;;;;;2.10;0.70;;;20.40;99.90;;;;;;4984664;28;20335;-73
2023/08/01 10:12:02;;;;;;;2.13;0.68;;;20.40;99.90;;;;;;4985210;28;20026;-75
2023/08/01 10:14:28;;;;;;;1.60;0.40;;;20.50;99.90;;;;;;4984702;28;20065;-73
2023/08/01 10:16:55;;;;;;;2.17;0.60;;;20.70;99.90;;;;;;4983398;28;20038;-71
2023/08/01 10:19:22;;;;;;;0.75;0.20;;;20.70;99.90;;;;;;4983212;28;20030;-73
2023/08/01 10:21:49;;;;;;;1.92;0.63;;;20.60;99.90;;;;;;4985003;28;20077;-77
2023/08/01 10:24:15;;;;;;;1.33;0.30;;;20.50;99.90;;;;;;4984240;28;20025;-73
2023/08/01 10:26:46;;;;;;;1.55;0.30;;;20.60;99.90;;;;;;4984683;28;20046;-78
2023/08/01 10:29:11;;;;;;;1.85;0.40;;;20.80;99.90;;;;;;4984205;28;20038;-73
2023/08/01 10:31:37;;;;;;;1.15;0.30;;;20.90;99.90;;;;;;4984867;28;20025;-75
2023/08/01 10:34:12;;;;;;;0.75;0.40;;;21.00;99.90;;;;;;4983804;28;20021;-74
2023/08/01 10:36:38;;;;;;;3.08;0.40;;;21.00;99.90;;;;;;4984670;28;20047;-76
2023/08/01 10:39:04;;;;;;;1.60;0.20;;;20.90;99.90;;;;;;4983460;28;20230;-74
2023/08/01 10:41:37;;;;;;;0.68;0.20;;;21.00;99.90;;;;;;4983742;28;20220;-76
2023/08/01 10:44:10;;;;;;;2.00;0.30;;;21.20;99.90;;;;;;4984304;28;20094;-74
2023/08/01 10:46:49;;;;;;;2.55;0.30;;;21.10;99.90;;;;;;4983398;28;20309;-72
2023/08/01 10:49:15;;;;;;;1.33;0.30;;;21.40;99.90;;;;;;4978461;28;20326;-72
2023/08/01 10:51:42;;;;;;;2.75;0.40;;;21.30;99.90;;;;;;4983806;28;20038;-72
2023/08/01 10:54:24;;;;;;;5.22;0.68;;;21.20;99.90;;;;;;4966017;28;20082;-71
2023/08/01 10:56:52;;;;;;;0.63;0.25;;;21.20;99.90;;;;;;4970920;28;20086;-72
2023/08/01 10:59:18;;;;;;;1.77;0.52;;;21.20;99.90;;;;;;4964260;29;20054;-72
2023/08/01 11:01:52;;;;;;;0.93;0.30;;;21.30;99.90;;;;;;4964863;29;20065;-71
2023/08/01 11:04:21;;;;;;;4.65;0.50;;;21.50;99.90;;;;;;4966779;28;20262;-73
2023/08/01 11:06:49;;;;;;;2.22;0.38;;;21.80;99.90;;;;;;4966131;28;20063;-74
2023/08/01 11:09:20;;;;;;;0.97;0.30;;;22.00;98.10;;;;;;4964054;29;20027;-74
2023/08/01 11:11:49;;;;;;;1.52;0.50;;;21.90;97.60;;;;;;4963423;29;20035;-74
2023/08/01 11:14:15;;;;;;;1.20;0.30;;;22.00;96.70;;;;;;4964029;29;20070;-72
2023/08/01 11:16:42;;;;;;;1.98;0.38;;;22.00;96.20;;;;;;4978749;28;20212;-72
2023/08/01 11:19:18;;;;;;;2.55;0.60;;;21.90;94.30;;;;;;4983893;28;20050;-73
2023/08/01 11:21:44;;;;;;;2.72;0.38;;;22.20;94.20;;;;;;4983208;28;20031;-74
2023/08/01 11:24:10;;;;;;;1.38;0.38;;;22.20;93.90;;;;;;4983313;28;20315;-72
2023/08/01 11:26:35;;;;;;;0.95;0.50;;;22.30;94.00;;;;;;4983036;28;20050;-74
2023/08/01 11:29:03;;;;;;;1.83;0.38;;;22.70;93.60;;;;;;4983878;28;20039;-72
2023/08/01 11:31:30;;;;;;;1.83;0.30;;;23.00;91.70;;;;;;4982700;28;20090;-72
2023/08/01 11:33:57;;;;;;;1.23;0.40;;;23.20;90.60;;;;;;4951591;29;20047;-73
2023/08/01 11:36:27;;;;;;;1.23;0.40;;;23.10;90.00;;;;;;4973221;28;20023;-74
2023/08/01 11:38:53;;;;;;;1.92;0.35;;;23.50;90.00;;;;;;4983503;28;20039;-72
2023/08/01 11:41:19;;;;;;;2.85;0.50;;;24.00;88.10;;;;;;4982318;28;20264;-73
2023/08/01 11:43:44;;;;;;;1.45;0.50;;;23.90;86.90;;;;;;4983141;28;20023;-72
2023/08/01 11:46:10;;;;;;;5.07;1.30;;;24.40;84.70;;;;;;4983360;28;20030;-72
2023/08/01 11:48:36;;;;;;;1.58;0.50;;;25.80;81.20;;;;;;4981089;28;20137;-73
2023/08/01 11:51:02;;;;;;;1.10;0.50;;;26.20;81.00;;;;;;4983438;28;20034;-73
2023/08/01 11:53:29;;;;;;;1.25;0.50;;;26.70;77.50;;;;;;4982552;28;20026;-75
2023/08/01 11:55:56;;;;;;;2.40;0.60;;;26.40;78.10;;;;;;4977493;28;20028;-74
2023/08/01 11:58:32;;;;;;;1.93;0.80;;;27.00;79.60;;;;;;4963667;28;20192;-74
2023/08/01 12:01:05;;;;;;;1.20;0.60;;;27.40;75.00;;;;;;4967834;29;20042;-75
2023/08/01 12:03:33;;;;;;;1.58;0.77;;;27.80;74.40;;;;;;4967367;29;20320;-76
2023/08/01 12:06:08;;;;;;;1.90;0.65;;;27.90;73.80;;;;;;4966660;29;20051;-72
2023/08/01 12:08:34;;;;;;;2.97;0.75;;;28.10;70.90;;;;;;4967184;28;20233;-72
2023/08/01 12:11:00;;;;;;;2.28;0.50;;;28.00;70.10;;;;;;4968093;29;20062;-74
2023/08/01 12:13:26;;;;;;;2.05;0.68;;;27.30;70.20;;;;;;4950323;29;20051;-72
2023/08/01 12:15:56;;;;;;;1.75;0.60;;;26.70;71.60;;;;;;4975187;28;20066;-74
2023/08/01 12:18:25;;;;;;;2.47;0.77;;;26.60;72.30;;;;;;4986282;28;20030;-74
2023/08/01 12:20:51;;;;;;;1.85;0.45;;;27.50;70.70;;;;;;5001824;28;20101;-73
2023/08/01 12:23:18;;;;;;;1.92;0.50;;;26.90;70.00;;;;;;4986532;28;20037;-75
2023/08/01 12:25:44;;;;;;;4.53;0.80;;;26.70;70.60;;;;;;4986408;28;20054;-73
2023/08/01 12:28:10;;;;;;;3.10;0.80;;;27.40;70.80;;;;;;4986971;28;20030;-76
2023/08/01 12:30:38;;;;;;;1.73;0.70;;;28.40;68.20;;;;;;4986568;28;20431;-74
2023/08/01 12:33:04;;;;;;;1.95;0.85;;;29.80;66.10;;;;;;4986840;28;20025;-74
2023/08/01 12:35:30;;;;;;;1.55;0.60;;;29.20;64.90;;;;;;4985887;28;20031;-73
2023/08/01 12:37:56;;;;;;;2.53;0.80;;;29.20;66.10;;;;;;4985517;28;20047;-73
2023/08/01 12:40:22;;;;;;;1.33;0.60;;;29.90;64.60;;;;;;4985883;28;20316;-72
2023/08/01 12:42:48;;;;;;;1.95;0.40;;;29.80;64.00;;;;;;4986748;28;20022;-71
2023/08/01 12:45:13;;;;;;;2.30;0.50;;;30.70;64.30;;;;;;4986388;28;20196;-72
2023/08/01 12:47:39;;;;;;;2.50;0.68;;;30.20;62.80;;;;;;4985369;28;20096;-73
2023/08/01 12:50:06;;;;;;;1.60;0.50;;;30.60;62.70;;;;;;4970812;28;20058;-74
2023/08/01 12:52:32;;;;;;;3.40;0.88;;;30.60;62.60;;;;;;4965584;29;20078;-73
2023/08/01 12:54:57;;;;;;;6.50;0.82;;;31.80;62.40;;;;;;4966957;29;20038;-73
2023/08/01 12:57:23;;;;;;;2.78;0.50;;;32.10;58.70;;;;;;4982740;28;20046;-72
2023/08/01 12:59:49;;;;;;;3.90;0.60;;;31.50;59.40;;;;;;4986366;28;20085;-74
2023/08/01 13:02:15;;;;;;;1.83;0.73;;;30.70;59.70;;;;;;4986010;28;20027;-75
2023/08/01 13:04:40;;;;;;;1.48;0.50;;;31.60;59.70;;;;;;4985638;28;20018;-73
2023/08/01 13:07:06;;;;;;;1.95;0.60;;;31.50;58.10;;;;;;4986151;28;20094;-73
2023/08/01 13:09:32;;;;;;;1.73;0.70;;;30.50;60.00;;;;;;4984940;28;20185;-73
2023/08/01 13:11:59;;;;;;;1.33;0.60;;;31.20;60.00;;;;;;4985699;28;20030;-75
2023/08/01 13:14:25;;;;;;;1.77;0.57;;;30.90;59.50;;;;;;4985352;28;20305;-74
2023/08/01 13:16:51;;;;;;;2.55;0.70;;;30.30;60.70;;;;;;4985990;28;20089;-73
2023/08/01 13:19:18;;;;;;;2.70;0.70;;;29.30;62.00;;;;;;4985957;28;20164;-74
2023/08/01 13:21:44;;;;;;;2.08;0.70;;;30.50;62.40;;;;;;5000754;28;20315;-73
2023/08/01 13:24:09;;;;;;;1.83;0.65;;;31.10;59.80;;;;;;4985654;28;20034;-72
2023/08/01 13:26:36;;;;;;;2.60;0.60;;;31.30;60.20;;;;;;4984717;28;20046;-72
2023/08/01 13:29:02;;;;;;;2.97;0.55;;;32.10;58.70;;;;;;4985669;28;20316;-72
2023/08/01 13:31:28;;;;;;;3.30;1.17;;;31.60;59.00;;;;;;5000455;28;20042;-73
2023/08/01 13:33:55;;;;;;;2.13;0.68;;;31.40;58.40;;;;;;4985561;28;20038;-74
2023/08/01 13:36:21;;;;;;;1.42;0.63;;;32.20;56.50;;;;;;4984868;28;20041;-73
2023/08/01 13:38:47;;;;;;;2.20;0.70;;;32.40;56.20;;;;;;4985474;28;20026;-72
2023/08/01 13:41:13;;;;;;;2.45;0.77;;;33.60;54.70;;;;;;4985302;28;20038;-71
2023/08/01 13:43:39;;;;;;;2.22;0.82;;;33.30;54.70;;;;;;4985030;28;20026;-72
2023/08/01 13:46:16;;;;;;;1.77;0.40;;;33.40;54.20;;;;;;4985490;28;20058;-71
2023/08/01 13:48:43;;;;;;;1.80;0.55;;;32.70;55.10;;;;;;4984746;28;20054;-73
2023/08/01 13:51:09;;;;;;;1.55;0.65;;;33.50;54.60;;;;;;4985504;28;20359;-75
2023/08/01 13:53:40;;;;;;;3.97;1.00;;;32.80;55.40;;;;;;4985221;28;20331;-71
2023/08/01 13:56:15;;;;;;;3.72;0.85;;;32.30;55.20;;;;;;4979147;28;20091;-73
2023/08/01 13:58:41;;;;;;;2.10;0.70;;;33.40;55.00;;;;;;4965780;29;20263;-73
2023/08/01 14:01:09;;;;;;;3.10;0.55;;;33.80;53.80;;;;;;4964713;29;20035;-73
2023/08/01 14:03:36;;;;;;;1.95;0.63;;;34.60;53.50;;;;;;4965144;28;20053;-73
2023/08/01 14:06:06;;;;;;;1.52;0.70;;;35.70;54.00;;;;;;4965804;29;20070;-74
2023/08/01 14:08:32;;;;;;;1.48;0.60;;;36.30;51.80;;;;;;4965483;29;20038;-73
2023/08/01 14:10:58;;;;;;;1.98;0.80;;;36.00;49.80;;;;;;4966046;29;20039;-73
2023/08/01 14:13:24;;;;;;;3.92;0.70;;;36.00;51.90;;;;;;4965304;28;20035;-75
2023/08/01 14:15:51;;;;;;;1.38;0.63;;;35.10;50.50;;;;;;4984561;28;20035;-73
2023/08/01 14:18:17;;;;;;;1.95;0.63;;;34.90;51.10;;;;;;4974679;28;20035;-73
2023/08/01 14:20:42;;;;;;;1.25;0.40;;;35.40;51.10;;;;;;4983306;28;20327;-72
2023/08/01 14:23:08;;;;;;;2.28;0.70;;;36.10;51.50;;;;;;4970709;28;20031;-74
2023/08/01 14:25:34;;;;;;;2.97;0.60;;;36.30;50.40;;;;;;4970008;28;20042;-72
2023/08/01 14:28:01;;;;;;;2.00;0.70;;;35.70;50.30;;;;;;4983952;28;20035;-72
2023/08/01 14:30:27;;;;;;;2.85;0.70;;;35.20;49.90;;;;;;4979964;28;20031;-72
2023/08/01 14:33:02;;;;;;;1.70;0.73;;;34.40;50.30;;;;;;4964980;29;20325;-72
2023/08/01 14:35:28;;;;;;;2.20;0.75;;;34.00;52.20;;;;;;4964415;29;20031;-72
2023/08/01 14:37:55;;;;;;;1.75;0.60;;;34.70;50.40;;;;;;4964985;29;20070;-74
2023/08/01 14:40:24;;;;;;;1.65;0.50;;;34.50;49.30;;;;;;4964944;29;20051;-73
2023/08/01 14:42:51;;;;;;;1.63;0.50;;;34.20;49.50;;;;;;4965254;29;20035;-73
2023/08/01 14:45:19;;;;;;;1.42;0.60;;;33.80;50.30;;;;;;4965233;28;20340;-73
2023/08/01 14:47:45;;;;;;;1.60;0.60;;;32.40;51.20;;;;;;4970243;28;20085;-73
2023/08/01 14:50:12;;;;;;;2.22;0.60;;;32.60;52.70;;;;;;4971626;28;20043;-73
2023/08/01 14:52:39;;;;;;;1.77;0.60;;;33.80;50.90;;;;;;4964386;29;20046;-73
2023/08/01 14:55:05;;;;;;;1.73;0.60;;;35.80;48.50;;;;;;4965012;29;20067;-73
2023/08/01 14:57:31;;;;;;;1.92;0.73;;;35.20;48.50;;;;;;4981848;28;20312;-75
2023/08/01 14:59:57;;;;;;;2.80;0.60;;;35.30;48.70;;;;;;4983908;28;20046;-73
2023/08/01 15:02:23;;;;;;;2.53;0.60;;;35.60;48.30;;;;;;4983815;28;20041;-74
2023/08/01 15:04:55;;;;;;;1.70;0.60;;;35.80;48.20;;;;;;4982781;28;20054;-73
2023/08/01 15:07:25;;;;;;;1.48;0.70;;;36.20;48.50;;;;;;4983679;28;20031;-75
2023/08/01 15:09:52;;;;;;;1.63;0.60;;;36.10;47.20;;;;;;4983853;28;20093;-75
2023/08/01 15:12:26;;;;;;;1.50;0.63;;;35.20;47.60;;;;;;4984056;28;20039;-75
2023/08/01 15:14:55;;;;;;;1.70;0.60;;;35.30;48.10;;;;;;4984076;28;20347;-75
2023/08/01 15:17:21;;;;;;;1.60;0.60;;;34.20;48.50;;;;;;4983223;28;20066;-71
2023/08/01 15:19:47;;;;;;;1.60;0.60;;;33.50;49.60;;;;;;4982995;28;20212;-73
2023/08/01 15:22:17;;;;;;;2.47;0.50;;;34.50;49.40;;;;;;4974808;28;20270;-75
2023/08/01 15:24:46;;;;;;;2.72;0.80;;;34.70;49.00;;;;;;4963417;29;20094;-73
2023/08/01 15:27:12;;;;;;;1.98;0.80;;;34.80;49.10;;;;;;4964525;29;20043;-72
2023/08/01 15:29:39;;;;;;;3.40;2.38;;;34.00;48.90;;;;;;4963970;29;20039;-72
2023/08/01 15:32:05;;;;;;;1.42;0.50;;;34.70;49.50;;;;;;4964232;28;20031;-73
2023/08/01 15:34:31;;;;;;;1.73;0.60;;;34.60;49.10;;;;;;4982179;28;20026;-75
2023/08/01 15:36:57;;;;;;;1.92;0.60;;;34.70;49.00;;;;;;4983506;28;20300;-73
2023/08/01 15:39:22;;;;;;;3.15;0.65;;;34.50;49.50;;;;;;4981985;28;20074;-73
2023/08/01 15:41:48;;;;;;;1.88;0.60;;;34.30;49.70;;;;;;4982225;28;20023;-73
2023/08/01 15:44:14;;;;;;;2.15;0.60;;;34.60;49.40;;;;;;4983638;28;20102;-73
2023/08/01 15:46:40;;;;;;;2.30;0.70;;;34.00;51.00;;;;;;4982970;28;20038;-72
2023/08/01 15:49:06;;;;;;;1.90;0.60;;;35.50;49.10;;;;;;4983416;28;20038;-72
2023/08/01 15:51:32;;;;;;;1.75;0.60;;;35.40;48.50;;;;;;4981532;28;20050;-74
2023/08/01 15:53:58;;;;;;;3.38;0.80;;;35.40;47.80;;;;;;4983326;28;20030;-73
2023/08/01 15:56:24;;;;;;;2.22;0.90;;;34.60;49.10;;;;;;4979747;28;20092;-73
2023/08/01 15:58:50;;;;;;;2.05;0.77;;;34.20;49.00;;;;;;4982627;28;20308;-72
2023/08/01 16:01:16;;;;;;;2.05;0.63;;;32.60;50.70;;;;;;4983004;28;20062;-73
2023/08/01 16:03:43;;;;;;;1.70;0.73;;;31.10;52.50;;;;;;4982517;28;20078;-72
2023/08/01 16:06:10;;;;;;;2.53;0.70;;;29.50;54.70;;;;;;4983272;28;20042;-74
2023/08/01 16:08:36;;;;;;;1.35;0.57;;;28.20;57.00;;;;;;4982746;28;20050;-74
2023/08/01 16:11:02;;;;;;;2.35;0.80;;;27.70;58.40;;;;;;4965618;28;20049;-73
2023/08/01 16:13:28;;;;;;;1.85;0.60;;;29.20;57.30;;;;;;4981903;28;20061;-72
2023/08/01 16:15:54;;;;;;;1.92;0.65;;;31.20;54.00;;;;;;4983026;28;20038;-71
2023/08/01 16:18:20;;;;;;;2.65;0.50;;;32.80;52.20;;;;;;4983276;28;20038;-71
2023/08/01 16:20:46;;;;;;;2.47;0.90;;;33.40;50.40;;;;;;4982889;28;20133;-73
2023/08/01 16:23:12;;;;;;;2.28;0.80;;;33.30;50.80;;;;;;4981521;28;20043;-73
2023/08/01 16:25:38;;;;;;;1.83;0.60;;;32.90;51.80;;;;;;4962730;28;20051;-73
2023/08/01 16:28:04;;;;;;;2.25;0.47;;;33.90;50.90;;;;;;4976456;28;20046;-72
2023/08/01 16:30:30;;;;;;;2.30;0.70;;;33.70;49.40;;;;;;4982685;28;20031;-72
2023/08/01 16:32:56;;;;;;;1.95;0.70;;;33.50;50.30;;;;;;4983425;28;20031;-74
2023/08/01 16:35:23;;;;;;;1.85;0.63;;;33.20;50.30;;;;;;4983180;28;20035;-72
2023/08/01 16:37:49;;;;;;;3.05;0.80;;;30.90;53.20;;;;;;4982656;28;20102;-73
2023/08/01 16:40:15;;;;;;;2.42;0.75;;;30.20;54.80;;;;;;4982931;28;20039;-72
2023/08/01 16:42:41;;;;;;;1.63;0.63;;;29.50;55.60;;;;;;4981161;28;20026;-75
2023/08/01 16:45:09;;;;;;;1.70;0.63;;;28.50;56.90;;;;;;4983608;28;20100;-74
2023/08/01 16:47:41;;;;;;;2.13;0.65;;;28.20;57.70;;;;;;4986326;28;20054;-78
2023/08/01 16:50:15;;;;;;;1.60;0.57;;;27.50;57.50;;;;;;4974803;28;20069;-74
2023/08/01 16:52:41;;;;;;;2.40;0.70;;;27.30;57.90;;;;;;4965810;29;20323;-73
2023/08/01 16:55:07;;;;;;;2.58;0.95;;;27.10;58.30;;;;;;4967259;29;20031;-75
2023/08/01 16:57:33;;;;;;;2.85;0.60;;;26.90;58.40;;;;;;4984051;28;20102;-73
2023/08/01 16:59:58;;;;;;;1.92;0.85;;;26.50;58.70;;;;;;4985446;28;20058;-73
2023/08/01 17:02:25;;;;;;;1.70;0.70;;;26.00;59.70;;;;;;4986557;28;20043;-75
2023/08/01 17:04:51;;;;;;;2.00;0.90;;;25.50;60.40;;;;;;4984655;28;20272;-73
2023/08/01 17:07:17;;;;;;;2.33;0.95;;;25.20;61.40;;;;;;4986082;28;20309;-74
2023/08/01 17:09:42;;;;;;;2.40;0.88;;;25.10;62.20;;;;;;4985099;28;20054;-73
2023/08/01 17:12:08;;;;;;;3.90;0.85;;;24.90;61.20;;;;;;4986126;28;20213;-73
2023/08/01 17:14:34;;;;;;;2.45;0.90;;;24.90;61.60;;;;;;4984918;28;20022;-75
2023/08/01 17:16:59;;;;;;;3.03;0.82;;;24.50;61.70;;;;;;4985881;28;20034;-75
2023/08/01 17:19:28;;;;;;;;;;;24.70;61.80;;;;;;4985002;28;20348;-74
2023/08/01 17:21:56;;;;;;;2.47;0.93;;;24.80;61.40;;;;;;4979752;28;19912;-74
2023/08/01 17:24:22;;;;;;;;;;;24.50;62.00;;;;;;4985850;28;20163;-74
2023/08/01 17:26:48;;;;;;;1.98;0.80;;;24.30;62.50;;;;;;4985147;28;19980;-73
2023/08/01 17:29:14;;;;;;;2.30;0.70;;;24.30;62.70;;;;;;4985670;28;20117;-75
2023/08/01 17:31:40;;;;;;;4.05;0.80;;;24.40;62.70;;;;;;4985381;28;20038;-74
2023/08/01 17:34:06;;;;;;;2.28;1.00;;;24.20;63.10;;;;;;4985725;28;20268;-73
2023/08/01 17:36:32;;;;;;;1.63;0.60;;;24.30;63.10;;;;;;4985804;28;20105;-72
2023/08/01 17:38:58;;;;;;;2.30;0.80;;;24.70;62.00;;;;;;4985527;28;20097;-74
2023/08/01 17:41:28;;;;;;;1.90;0.70;;;25.80;60.40;;;;;;4985689;28;20019;-73
2023/08/01 17:43:56;;;;;;;2.78;0.82;;;26.80;58.70;;;;;;4984959;28;20046;-72
2023/08/01 17:46:23;;;;;;;3.25;0.95;;;27.70;57.20;;;;;;4985217;28;20034;-72
2023/08/01 17:48:49;;;;;;;1.77;0.85;;;28.70;56.20;;;;;;4985274;28;20031;-74
2023/08/01 17:51:17;;;;;;;1.75;0.80;;;29.60;55.00;;;;;;4984950;28;20223;-73
2023/08/01 17:53:44;;;;;;;2.00;0.70;;;29.80;53.80;;;;;;4984770;28;20432;-71
2023/08/01 17:56:11;;;;;;;2.40;0.60;;;29.40;54.30;;;;;;4976914;28;20043;-72
2023/08/01 17:58:36;;;;;;;1.55;0.60;;;29.40;54.10;;;;;;4965628;29;20050;-74
2023/08/01 18:01:05;;;;;;;2.63;0.70;;;28.80;55.00;;;;;;4970845;28;20027;-72
2023/08/01 18:03:31;;;;;;;2.40;0.70;;;28.80;54.80;;;;;;4984984;28;20041;-74
2023/08/01 18:06:15;;;;;;;2.30;0.77;;;28.50;55.50;;;;;;4984740;28;20208;-74
2023/08/01 18:08:43;;;;;;;2.17;0.80;;;27.40;56.20;;;;;;4983463;28;20249;-73
2023/08/01 18:11:11;;;;;;;3.40;0.80;;;26.30;57.90;;;;;;4984825;28;20186;-74
2023/08/01 18:13:41;;;;;;;5.15;0.90;;;25.40;60.00;;;;;;4983840;28;20368;-72
2023/08/01 18:16:08;;;;;;;2.22;0.95;;;24.60;61.70;;;;;;4984165;28;20045;-75
2023/08/01 18:18:37;;;;;;;3.63;0.80;;;23.80;63.60;;;;;;4984190;28;20035;-72
2023/08/01 18:21:07;;;;;;;3.65;0.80;;;23.30;65.00;;;;;;4984421;28;20042;-74
2023/08/01 18:23:37;;;;;;;2.53;1.00;;;23.10;66.00;;;;;;4983611;28;20033;-72
2023/08/01 18:26:04;;;;;;;2.35;0.85;;;22.80;66.60;;;;;;4984415;28;20071;-74
2023/08/01 18:28:33;;;;;;;2.97;1.00;;;22.70;67.10;;;;;;4983903;28;20054;-74
2023/08/01 18:31:09;;;;;;;4.00;1.08;;;22.50;67.50;;;;;;4983968;28;20339;-74
2023/08/01 18:33:37;;;;;;;2.40;0.75;;;22.30;68.30;;;;;;4981727;28;20332;-73
2023/08/01 18:36:05;;;;;;;2.75;1.05;;;22.20;68.70;;;;;;4984558;28;20034;-74
2023/08/01 18:38:31;;;;;;;3.58;1.20;;;22.10;69.10;;;;;;4984412;28;20090;-73
2023/08/01 18:40:57;;;;;;;2.35;0.80;;;21.90;69.80;;;;;;4984165;28;20089;-72